Saturday, November 18, 2017, 6:53 AM EST
Back to Local

KIDI, Indiana / Stewart Field

Location: Indiana, PA, United States Lat: 40.633
Local Time: 6:53 AM EST (11:53 GMT) Lon: -79.1
Time Zone: US/Eastern Elev: 1407 ft

Show me the last for .
Show Decoded

2017-11-18 06:35 METAR KIDI 181135Z AUTO 00000KT 4SM BR SCT030 BKN038 OVC060 04/03 A2978 RMK A01
                 =
2017-11-18 06:15 METAR KIDI 181115Z AUTO 11004KT 4SM BR BKN039 BKN050 OVC065 05/03 A2978 RMK A01
                 =
2017-11-18 05:55 METAR KIDI 181055Z AUTO 19004KT 6SM HZ FEW043 SCT055 BKN065 07/M02 A2978 RMK A01
                 =
2017-11-18 05:35 METAR KIDI 181035Z AUTO 17008KT 10SM SCT075 BKN100 OVC120 08/M05 A2977 RMK A01 =
2017-11-18 05:15 METAR KIDI 181015Z AUTO 17008KT 10SM BKN110 08/M05 A2978 RMK A01 =
2017-11-18 04:55 METAR KIDI 180955Z AUTO 14005KT 10SM OVC100 07/M05 A2979 RMK A01 =
2017-11-18 04:35 METAR KIDI 180935Z AUTO 00000KT 10SM BKN100 07/M05 A2981 RMK A01 =
2017-11-18 04:15 METAR KIDI 180915Z AUTO 17004KT 10SM BKN110 08/M05 A2980 RMK A01 =
2017-11-18 03:55 METAR KIDI 180855Z AUTO 16006KT 10SM SCT110 07/M05 A2981 RMK A01 =
2017-11-18 03:35 METAR KIDI 180835Z AUTO 16005KT 10SM FEW110 07/M05 A2983 RMK A01 =
2017-11-18 03:15 METAR KIDI 180815Z AUTO 15005KT 10SM CLR 06/M04 A2986 RMK A01 =
2017-11-18 02:55 METAR KIDI 180755Z AUTO 17007KT 10SM CLR 06/M04 A2987 RMK A01 =
2017-11-18 02:35 METAR KIDI 180735Z AUTO 17007KT 10SM CLR 06/M04 A2988 RMK A01 =
2017-11-18 02:15 METAR KIDI 180715Z AUTO 17006KT 10SM CLR 05/M04 A2987 RMK A01 =
2017-11-18 01:55 METAR KIDI 180655Z AUTO 17007KT 10SM CLR 05/M04 A2987 RMK A01 =
2017-11-18 01:35 METAR KIDI 180635Z AUTO 16008KT 10SM CLR 05/M04 A2988 RMK A01 =
2017-11-18 01:15 METAR KIDI 180615Z AUTO 15008G15KT 10SM CLR 05/M04 A2989 RMK A01 =
2017-11-18 00:55 METAR KIDI 180555Z AUTO 15009KT 10SM CLR 05/M03 A2991 RMK A01 =
2017-11-18 00:35 METAR KIDI 180535Z AUTO 17005G11KT 10SM CLR 04/M03 A2993 RMK A01 =
2017-11-18 00:15 METAR KIDI 180515Z AUTO 00000KT 10SM CLR 02/M03 A2995 RMK A01 =
2017-11-17 23:55 METAR KIDI 180455Z AUTO 00000KT 10SM CLR M00/M03 A2996 RMK A01 =
2017-11-17 23:35 METAR KIDI 180435Z AUTO 00000KT 10SM CLR M01/M03 A2997 RMK A01 =
2017-11-17 23:15 METAR KIDI 180415Z AUTO 00000KT 10SM CLR M00/M02 A2998 RMK A01 =
2017-11-17 22:55 METAR KIDI 180355Z AUTO 00000KT 10SM CLR M01/M03 A2999 RMK A01 =
2017-11-17 22:35 METAR KIDI 180335Z AUTO 00000KT 10SM CLR M01/M02 A3001 RMK A01 =
2017-11-17 22:15 METAR KIDI 180315Z AUTO 10004KT 10SM CLR M01/M02 A3001 RMK A01 =
2017-11-17 21:55 METAR KIDI 180255Z AUTO 12004KT 10SM CLR M01/M02 A3003 RMK A01 =
2017-11-17 21:35 METAR KIDI 180235Z AUTO 00000KT 10SM CLR M00/M02 A3004 RMK A01 =
2017-11-17 21:15 METAR KIDI 180215Z AUTO 00000KT 10SM CLR M00/M02 A3004 RMK A01 =
2017-11-17 20:55 METAR KIDI 180155Z AUTO 00000KT 10SM CLR M00/M02 A3005 RMK A01 =
2017-11-17 20:35 METAR KIDI 180135Z AUTO 00000KT 10SM CLR M00/M02 A3005 RMK A01 =
2017-11-17 20:15 METAR KIDI 180115Z AUTO 00000KT 10SM CLR M01/M03 A3004 RMK A01 =
2017-11-17 19:55 METAR KIDI 180055Z AUTO 00000KT 10SM CLR M00/M02 A3005 RMK A01 =
2017-11-17 19:35 METAR KIDI 180035Z AUTO 00000KT 10SM CLR M01/M02 A3006 RMK A01 =
2017-11-17 19:15 METAR KIDI 180015Z AUTO 00000KT 10SM CLR M00/M02 A3007 RMK A01 =
2017-11-17 18:55 METAR KIDI 172355Z AUTO 00000KT 10SM CLR M00/M02 A3009 RMK A01 =
2017-11-17 18:35 METAR KIDI 172335Z AUTO 11004KT 10SM CLR M00/M02 A3010 RMK A01 =
2017-11-17 18:15 METAR KIDI 172315Z AUTO 00000KT 10SM FEW017 01/M02 A3011 RMK A01 =
2017-11-17 17:55 METAR KIDI 172255Z AUTO 13003KT 10SM SCT017 01/M02 A3012 RMK A01 =
2017-11-17 17:35 METAR KIDI 172235Z AUTO 00000KT 10SM CLR 02/M02 A3013 RMK A01 =
2017-11-17 17:15 METAR KIDI 172215Z AUTO 00000KT 10SM CLR 03/M03 A3013 RMK A01 =
2017-11-17 16:55 METAR KIDI 172155Z AUTO 18003KT 10SM CLR 03/M02 A3013 RMK A01 =
2017-11-17 16:35 METAR KIDI 172135Z AUTO 20004KT 10SM SCT120 04/M02 A3014 RMK A01 =
2017-11-17 16:15 METAR KIDI 172115Z AUTO 20003KT 10SM SCT120 04/M02 A3014 RMK A01 =
2017-11-17 15:55 METAR KIDI 172055Z AUTO 00000KT 10SM CLR 05/M02 A3016 RMK A01 =
2017-11-17 15:35 METAR KIDI 172035Z AUTO VRB03KT 10SM FEW120 05/M02 A3017 RMK A01 =
2017-11-17 15:15 METAR KIDI 172015Z AUTO 25005KT 10SM CLR 05/M02 A3018 RMK A01 =
2017-11-17 14:55 METAR KIDI 171955Z AUTO 24003KT 10SM CLR 05/M02 A3018 RMK A01 =
2017-11-17 14:35 METAR KIDI 171935Z AUTO 24005KT 10SM CLR 05/M02 A3019 RMK A01 =
2017-11-17 14:15 METAR KIDI 171915Z AUTO 00000KT 10SM CLR 06/M03 A3020 RMK A01 =
2017-11-17 13:55 METAR KIDI 171855Z AUTO 00000KT 10SM CLR 05/M02 A3020 RMK A01 =
2017-11-17 13:35 METAR KIDI 171835Z AUTO 00000KT 10SM CLR 06/M02 A3021 RMK A01 =
2017-11-17 13:15 METAR KIDI 171815Z AUTO 00000KT 10SM CLR 05/M02 A3022 RMK A01 =
2017-11-17 12:55 METAR KIDI 171755Z AUTO 24006KT 10SM CLR 05/M02 A3023 RMK A01 =
2017-11-17 12:35 METAR KIDI 171735Z AUTO VRB06KT 10SM CLR 05/M02 A3023 RMK A01 =
2017-11-17 12:15 METAR KIDI 171715Z AUTO 35007KT 320V030 10SM FEW028 05/M02 A3024 RMK A01 =
2017-11-17 11:55 METAR KIDI 171655Z AUTO 31006KT 10SM SCT027 04/M02 A3025 RMK A01 =
2017-11-17 11:35 METAR KIDI 171635Z AUTO 29006G12KT 10SM BKN027 04/M02 A3027 RMK A01 =
2017-11-17 11:15 METAR KIDI 171615Z AUTO 26008KT 10SM OVC026 03/M02 A3029 RMK A01 =
2017-11-17 10:55 METAR KIDI 171555Z AUTO 27008KT 10SM OVC025 03/M02 A3029 RMK A01 =
2017-11-17 10:35 METAR KIDI 171535Z AUTO VRB06G11KT 10SM OVC025 03/M02 A3030 RMK A01 =
2017-11-17 10:15 METAR KIDI 171515Z AUTO 29008G14KT 250V310 10SM OVC024 03/M02 A3029 RMK A01 =
2017-11-17 09:55 METAR KIDI 171455Z AUTO 29007G12KT 10SM OVC023 02/M02 A3029 RMK A01 =
2017-11-17 09:35 METAR KIDI 171435Z AUTO 31006G12KT 10SM OVC023 02/M02 A3029 RMK A01 =
2017-11-17 09:15 METAR KIDI 171415Z AUTO 31007KT 260V340 10SM FEW017 OVC022 02/M01 A3029 RMK A01
                 =
2017-11-17 08:55 METAR KIDI 171355Z AUTO 33006KT 10SM OVC021 02/M01 A3029 RMK A01 =
2017-11-17 08:35 METAR KIDI 171335Z AUTO 30007G13KT 260V320 10SM OVC023 02/M02 A3028 RMK A01 =
2017-11-17 08:15 METAR KIDI 171315Z AUTO VRB06KT 10SM OVC024 02/M02 A3027 RMK A01 =
2017-11-17 07:55 METAR KIDI 171255Z AUTO 31005KT 10SM OVC024 02/M02 A3027 RMK A01 =
2017-11-17 07:35 METAR KIDI 171235Z AUTO 32005KT 10SM OVC024 01/M02 A3026 RMK A01 =
2017-11-17 07:15 METAR KIDI 171215Z AUTO 30005KT 10SM OVC023 01/M02 A3025 RMK A01 =
2017-11-17 06:55 METAR KIDI 171155Z AUTO 31005KT 10SM OVC023 01/M02 A3025 RMK A01 =

Support USWX by starting your Amazon purchase here.